Welcome to Northern Hawkes Bay. New Zealand.
PWS Header
      nz Flag



Hit Counter


W3C Valid W3C Valid logo


    Wairoa

Select any of the Stations below to visit their websites.










Historic Data from Weather Underground
Select the location of interest below. Wairoa is the default. Please have patience, this Data is slow to load in.
Northern Hawkes Bay Historical Data
Daily Summary for May 24, 2017 Units:  Metric    English   Both
« Previous Day
Next Day »
Daily Weekly Monthly Yearly Custom
  High: Low: Average:
Temperature: 17.0 °C 7.0 °C 11.4 °C
Dew Point: 13.0 °C 5.3 °C 9.5 °C
Humidity: 97% 73% 88%
Wind Speed: 17.2km/h 0.0km/h 5.3km/h
Wind Gust: 28.0km/h - -
Wind- - WNW
Pressure: 1019.9 hPa 1016.1 hPa -
Precipitation: 2.8 mm    
Historical Graphs
 
 
Tabular Data for May 24, 2017
Time Temperature Dew Point Pressure Wind Wind Speed Wind Gust Humidity Rainfall Rate (Hourly) solar
00:01 11.1 °C 6.8 °C 1018.2 hPa NNW 9.7 km/h 13.4 km/h 75% 0.0 mm 0 W/m2
00:06 11.2 °C 6.7 °C 1018.2 hPa NNW 6.1 km/h 13.4 km/h 74% 0.0 mm 0 W/m2
00:12 11.2 °C 6.7 °C 1018.2 hPa NNW 7.2 km/h 14.8 km/h 74% 0.0 mm 0 W/m2
00:17 11.1 °C 6.7 °C 1018.5 hPa North 9.7 km/h 14.8 km/h 74% 0.0 mm 0 W/m2
00:22 11.0 °C 6.6 °C 1018.2 hPa North 6.1 km/h 17.2 km/h 74% 0.0 mm 0 W/m2
00:27 10.9 °C 6.7 °C 1018.2 hPa North 6.1 km/h 17.2 km/h 75% 0.0 mm 0 W/m2
00:32 10.8 °C 6.7 °C 1018.2 hPa North 7.2 km/h 15.8 km/h 76% 0.0 mm 0 W/m2
00:37 10.8 °C 6.7 °C 1018.2 hPa North 8.7 km/h 15.8 km/h 76% 0.0 mm 0 W/m2
00:42 10.8 °C 6.7 °C 1018.2 hPa NNW 8.7 km/h 15.8 km/h 76% 0.0 mm 0 W/m2
00:47 10.9 °C 7.1 °C 1018.2 hPa NNW 6.1 km/h 13.4 km/h 77% 0.0 mm 0 W/m2
00:52 10.8 °C 6.7 °C 1017.8 hPa NNW 7.2 km/h 13.4 km/h 76% 0.0 mm 0 W/m2
00:57 10.8 °C 6.9 °C 1017.8 hPa NNW 7.2 km/h 13.4 km/h 77% 0.0 mm 0 W/m2
01:02 10.8 °C 6.9 °C 1018.2 hPa North 8.7 km/h 13.4 km/h 77% 0.0 mm 0 W/m2
01:07 10.7 °C 6.8 °C 1017.8 hPa North 6.1 km/h 13.4 km/h 77% 0.0 mm 0 W/m2
01:12 10.8 °C 6.9 °C 1017.5 hPa North 6.1 km/h 13.4 km/h 77% 0.0 mm 0 W/m2
01:17 10.7 °C 6.8 °C 1017.8 hPa North 6.1 km/h 13.4 km/h 77% 0.0 mm 0 W/m2
01:22 10.6 °C 6.7 °C 1017.5 hPa NNW 9.7 km/h 14.8 km/h 77% 0.0 mm 0 W/m2
01:27 10.5 °C 6.7 °C 1017.5 hPa NNW 6.1 km/h 15.8 km/h 77% 0.0 mm 0 W/m2
01:32 10.5 °C 6.7 °C 1017.5 hPa NNW 8.7 km/h 15.8 km/h 77% 0.0 mm 0 W/m2
01:37 10.3 °C 6.4 °C 1017.5 hPa NNW 7.2 km/h 15.8 km/h 77% 0.0 mm 0 W/m2
01:42 10.2 °C 6.3 °C 1017.5 hPa North 6.1 km/h 15.8 km/h 77% 0.0 mm 0 W/m2
01:47 10.0 °C 6.3 °C 1017.5 hPa NNW 6.1 km/h 12.2 km/h 78% 0.0 mm 0 W/m2
01:52 9.9 °C 6.4 °C 1017.5 hPa NNW 5.0 km/h 12.2 km/h 79% 0.0 mm 0 W/m2
01:57 9.7 °C 6.4 °C 1017.5 hPa NNW 7.2 km/h 12.2 km/h 80% 0.0 mm 0 W/m2
02:02 9.6 °C 6.5 °C 1017.8 hPa North 7.2 km/h 12.2 km/h 81% 0.0 mm 0 W/m2
02:07 9.4 °C 6.5 °C 1017.5 hPa North 7.2 km/h 12.2 km/h 82% 0.0 mm 0 W/m2
02:12 9.5 °C 6.8 °C 1017.5 hPa NNW 8.7 km/h 17.2 km/h 83% 0.0 mm 0 W/m2
02:17 9.4 °C 6.7 °C 1017.5 hPa NNW 3.5 km/h 17.2 km/h 83% 0.0 mm 0 W/m2
02:22 9.2 °C 6.4 °C 1017.5 hPa NNW 3.5 km/h 14.8 km/h 83% 0.0 mm 0 W/m2
02:27 9.1 °C 6.6 °C 1017.5 hPa North 6.1 km/h 9.7 km/h 84% 0.0 mm 0 W/m2
02:32 9.0 °C 6.4 °C 1017.5 hPa North 6.1 km/h 11.1 km/h 84% 0.0 mm 0 W/m2
02:37 9.1 °C 6.6 °C 1017.5 hPa NNW 7.2 km/h 14.8 km/h 84% 0.0 mm 0 W/m2
02:42 9.1 °C 6.6 °C 1017.8 hPa NNW 7.2 km/h 14.8 km/h 84% 0.0 mm 0 W/m2
02:47 9.1 °C 6.6 °C 1017.5 hPa North 8.7 km/h 15.8 km/h 84% 0.0 mm 0 W/m2
02:52 9.2 °C 6.7 °C 1017.5 hPa NNE 8.7 km/h 15.8 km/h 84% 0.0 mm 0 W/m2
02:57 9.2 °C 6.7 °C 1017.2 hPa North 6.1 km/h 15.8 km/h 84% 0.0 mm 0 W/m2
03:02 9.2 °C 6.7 °C 1017.5 hPa North 7.2 km/h 15.8 km/h 84% 0.0 mm 0 W/m2
03:07 9.2 °C 6.7 °C 1017.5 hPa North 8.7 km/h 11.1 km/h 84% 0.0 mm 0 W/m2
03:12 9.4 °C 6.8 °C 1017.5 hPa North 6.1 km/h 14.8 km/h 84% 0.0 mm 0 W/m2
03:17 9.4 °C 6.7 °C 1017.2 hPa North 6.1 km/h 14.8 km/h 83% 0.0 mm 0 W/m2
03:22 9.3 °C 6.6 °C 1017.2 hPa North 6.1 km/h 9.7 km/h 83% 0.0 mm 0 W/m2
03:27 9.3 °C 6.6 °C 1017.2 hPa North 5.0 km/h 11.1 km/h 83% 0.0 mm 0 W/m2
03:32 9.4 °C 6.7 °C 1017.2 hPa North 8.7 km/h 13.4 km/h 83% 0.0 mm 0 W/m2
03:37 9.4 °C 6.7 °C 1017.5 hPa North 8.7 km/h 14.8 km/h 83% 0.0 mm 0 W/m2
03:42 9.3 °C 6.6 °C 1017.5 hPa NNW 9.7 km/h 14.8 km/h 83% 0.0 mm 0 W/m2
03:47 9.1 °C 6.4 °C 1017.2 hPa North 8.7 km/h 18.3 km/h 83% 0.0 mm 0 W/m2
04:05 8.5 °C 6.1 °C 1017.2 hPa North 6.1 km/h 13.4 km/h 85% 0.0 mm 0 W/m2
04:10 8.5 °C 6.3 °C 1017.2 hPa North 3.5 km/h 13.4 km/h 86% 0.0 mm 0 W/m2
04:15 8.4 °C 6.2 °C 1017.2 hPa North 3.5 km/h 11.1 km/h 86% 0.0 mm 0 W/m2
04:20 8.3 °C 6.1 °C 1017.2 hPa North 5.0 km/h 6.1 km/h 86% 0.0 mm 0 W/m2
04:25 8.3 °C 6.1 °C 1017.2 hPa North 5.0 km/h 7.2 km/h 86% 0.0 mm 0 W/m2
04:30 8.5 °C 6.4 °C 1017.2 hPa North 6.1 km/h 11.1 km/h 87% 0.0 mm 0 W/m2
04:35 8.9 °C 6.7 °C 1017.2 hPa North 8.7 km/h 12.2 km/h 86% 0.0 mm 0 W/m2
04:40 9.1 °C 6.6 °C 1017.2 hPa North 9.7 km/h 13.4 km/h 84% 0.0 mm 0 W/m2
04:45 9.2 °C 6.7 °C 1017.2 hPa North 11.1 km/h 14.8 km/h 84% 0.0 mm 0 W/m2
04:50 9.4 °C 6.8 °C 1017.2 hPa NNW 7.2 km/h 14.8 km/h 84% 0.0 mm 0 W/m2
04:55 9.3 °C 6.4 °C 1017.5 hPa NNW 9.7 km/h 17.2 km/h 82% 0.0 mm 0 W/m2
05:00 9.0 °C 6.3 °C 1017.2 hPa NNW 8.7 km/h 17.2 km/h 83% 0.0 mm 0 W/m2
05:05 8.8 °C 6.4 °C 1017.2 hPa NNW 12.2 km/h 17.2 km/h 85% 0.0 mm 0 W/m2
05:10 8.7 °C 6.3 °C 1017.2 hPa North 6.1 km/h 17.2 km/h 85% 0.0 mm 0 W/m2
05:15 8.6 °C 6.2 °C 1017.2 hPa North 8.7 km/h 15.8 km/h 85% 0.0 mm 0 W/m2
05:20 8.5 °C 6.3 °C 1017.5 hPa North 5.0 km/h 15.8 km/h 86% 0.0 mm 0 W/m2
05:23 8.5 °C 6.3 °C 1017.2 hPa North 5.0 km/h 11.1 km/h 86% 0.0 mm 0 W/m2
05:28 8.3 °C 6.1 °C 1017.2 hPa North 6.1 km/h 11.1 km/h 86% 0.0 mm 0 W/m2
05:33 8.3 °C 6.1 °C 1017.2 hPa North 7.2 km/h 11.1 km/h 86% 0.0 mm 0 W/m2
05:39 8.3 °C 6.1 °C 1017.5 hPa NNW 8.7 km/h 13.4 km/h 86% 0.0 mm 0 W/m2
05:44 8.1 °C 5.9 °C 1017.5 hPa NNW 5.0 km/h 13.4 km/h 86% 0.0 mm 0 W/m2
05:49 8.1 °C 6.1 °C 1017.2 hPa NNW 7.2 km/h 13.4 km/h 87% 0.0 mm 0 W/m2
05:54 8.0 °C 5.9 °C 1017.2 hPa NNW 3.5 km/h 12.2 km/h 87% 0.0 mm 0 W/m2
05:59 7.8 °C 5.8 °C 1017.5 hPa NNW 1.1 km/h 11.1 km/h 87% 0.0 mm 0 W/m2
06:04 7.7 °C 5.7 °C 1017.5 hPa North 1.1 km/h 8.7 km/h 87% 0.0 mm 0 W/m2
06:09 7.5 °C 5.5 °C 1017.5 hPa Calm   3.5 km/h 87% 0.0 mm 0 W/m2
06:14 7.3 °C 5.3 °C 1017.2 hPa ENE 1.1 km/h 3.5 km/h 87% 0.0 mm 0 W/m2
06:19 7.4 °C 5.6 °C 1017.5 hPa North 5.0 km/h 8.7 km/h 88% 0.0 mm 0 W/m2
06:24 7.3 °C 5.6 °C 1017.2 hPa North 3.5 km/h 8.7 km/h 89% 0.0 mm 0 W/m2
06:29 7.2 °C 5.5 °C 1017.2 hPa North 2.6 km/h 8.7 km/h 89% 0.0 mm 0 W/m2
06:34 7.1 °C 5.6 °C 1017.5 hPa NNW 5.0 km/h 6.1 km/h 90% 0.0 mm 0 W/m2
06:39 7.1 °C 5.6 °C 1017.5 hPa NNW 3.5 km/h 8.7 km/h 90% 0.0 mm 0 W/m2
06:44 7.1 °C 5.7 °C 1017.5 hPa NNW 2.6 km/h 8.7 km/h 91% 0.0 mm 0 W/m2
06:49 7.2 °C 5.8 °C 1017.5 hPa North 2.6 km/h 7.2 km/h 91% 0.0 mm 0 W/m2
06:54 7.1 °C 5.7 °C 1017.5 hPa Calm   6.1 km/h 91% 0.0 mm 0 W/m2
06:59 7.1 °C 5.7 °C 1017.5 hPa North 2.6 km/h 5.0 km/h 91% 0.0 mm 0 W/m2
07:04 7.0 °C 5.6 °C 1017.5 hPa NE 1.1 km/h 5.0 km/h 91% 0.0 mm 0 W/m2
07:09 7.0 °C 5.6 °C 1017.8 hPa NNE 3.5 km/h 6.1 km/h 91% 0.0 mm 1 W/m2
07:14 7.3 °C 5.9 °C 1017.8 hPa North 3.5 km/h 7.2 km/h 91% 0.0 mm 3 W/m2
07:19 7.6 °C 6.4 °C 1017.8 hPa North 3.5 km/h 8.7 km/h 92% 0.0 mm 6 W/m2
07:24 7.8 °C 6.6 °C 1017.8 hPa NNW 5.0 km/h 8.7 km/h 92% 0.0 mm 10 W/m2
07:29 8.0 °C 6.4 °C 1017.8 hPa NNW 6.1 km/h 8.7 km/h 90% 0.0 mm 26 W/m2
07:34 8.4 °C 6.8 °C 1017.8 hPa North 5.0 km/h 9.7 km/h 90% 0.0 mm 56 W/m2
07:39 8.9 °C 7.0 °C 1018.2 hPa North 3.5 km/h 11.1 km/h 88% 0.0 mm 65 W/m2
07:44 9.2 °C 7.2 °C 1018.2 hPa North 5.0 km/h 11.1 km/h 87% 0.0 mm 76 W/m2
07:49 9.7 °C 7.5 °C 1018.2 hPa North 6.1 km/h 9.7 km/h 86% 0.0 mm 89 W/m2
07:54 10.1 °C 7.3 °C 1018.2 hPa NNW 7.2 km/h 12.2 km/h 83% 0.0 mm 103 W/m2
07:59 10.4 °C 7.4 °C 1018.2 hPa NNW 5.0 km/h 12.2 km/h 82% 0.0 mm 44 W/m2
08:04 10.3 °C 7.0 °C 1018.2 hPa NNW 8.7 km/h 14.8 km/h 80% 0.0 mm 59 W/m2
08:09 10.1 °C 7.0 °C 1018.2 hPa NNW 7.2 km/h 15.8 km/h 81% 0.0 mm 70 W/m2
08:14 10.1 °C 7.2 °C 1018.5 hPa NNW 7.2 km/h 15.8 km/h 82% 0.0 mm 55 W/m2
08:19 10.0 °C 7.2 °C 1018.5 hPa NNW 8.7 km/h 12.2 km/h 83% 0.0 mm 44 W/m2
08:24 9.9 °C 7.5 °C 1018.5 hPa NNW 6.1 km/h 12.2 km/h 85% 0.0 mm 45 W/m2
08:29 9.7 °C 7.5 °C 1018.5 hPa NW 5.0 km/h 11.1 km/h 86% 0.0 mm 54 W/m2
08:34 9.6 °C 7.6 °C 1018.5 hPa NW 5.0 km/h 11.1 km/h 87% 0.0 mm 68 W/m2
08:39 9.5 °C 7.6 °C 1018.5 hPa NW 5.0 km/h 11.1 km/h 88% 0.0 mm 80 W/m2
08:45 9.6 °C 8.1 °C 1018.8 hPa NW 6.1 km/h 9.7 km/h 90% 0.0 mm 82 W/m2
08:50 9.7 °C 8.3 °C 1018.8 hPa NW 6.1 km/h 11.1 km/h 91% 0.0 mm 84 W/m2
08:55 9.9 °C 8.7 °C 1018.8 hPa NW 6.1 km/h 11.1 km/h 92% 0.0 mm 81 W/m2
09:00 10.1 °C 8.7 °C 1018.8 hPa NNW 5.0 km/h 11.1 km/h 91% 0.3 mm 62 W/m2
09:06 10.2 °C 8.8 °C 1018.8 hPa NNW 6.1 km/h 11.1 km/h 91% 0.3 mm 74 W/m2
09:11 10.3 °C 8.9 °C 1018.5 hPa NW 6.1 km/h 11.1 km/h 91% 0.3 mm 65 W/m2
09:16 10.4 °C 9.0 °C 1018.5 hPa NNW 6.1 km/h 9.7 km/h 91% 0.3 mm 62 W/m2
09:21 10.4 °C 9.0 °C 1018.8 hPa NNW 3.5 km/h 9.7 km/h 91% 0.5 mm 65 W/m2
09:26 10.4 °C 9.0 °C 1018.5 hPa NNW 5.0 km/h 7.2 km/h 91% 0.5 mm 59 W/m2
09:31 10.4 °C 9.2 °C 1018.5 hPa NNW 5.0 km/h 8.7 km/h 92% 0.5 mm 56 W/m2
09:36 10.4 °C 9.2 °C 1018.5 hPa NNW 7.2 km/h 9.7 km/h 92% 0.5 mm 70 W/m2
09:41 10.5 °C 9.4 °C 1018.5 hPa NNW 6.1 km/h 9.7 km/h 93% 1.0 mm 75 W/m2
09:46 10.7 °C 9.6 °C 1018.5 hPa NNW 5.0 km/h 15.8 km/h 93% 1.0 mm 84 W/m2
09:51 10.9 °C 9.8 °C 1018.5 hPa NW 7.2 km/h 15.8 km/h 93% 1.0 mm 82 W/m2
09:56 11.0 °C 9.8 °C 1018.5 hPa NNW 9.7 km/h 14.8 km/h 92% 1.0 mm 96 W/m2
10:01 11.0 °C 9.8 °C 1018.5 hPa NNW 7.2 km/h 15.8 km/h 92% 1.0 mm 102 W/m2
10:06 11.0 °C 9.6 °C 1018.5 hPa NNW 9.7 km/h 15.8 km/h 91% 1.0 mm 106 W/m2
10:11 11.1 °C 9.8 °C 1018.5 hPa NNW 7.2 km/h 12.2 km/h 92% 1.0 mm 76 W/m2
10:16 11.0 °C 9.8 °C 1018.5 hPa NNW 6.1 km/h 13.4 km/h 92% 1.0 mm 62 W/m2
10:21 10.9 °C 9.8 °C 1018.5 hPa NNW 9.7 km/h 13.4 km/h 93% 0.5 mm 81 W/m2
10:26 10.8 °C 9.7 °C 1018.5 hPa NNW 7.2 km/h 13.4 km/h 93% 0.5 mm 96 W/m2
10:31 10.7 °C 9.8 °C 1018.2 hPa NNW 7.2 km/h 14.8 km/h 94% 1.0 mm 91 W/m2
10:36 10.6 °C 9.7 °C 1018.2 hPa NNW 6.1 km/h 14.8 km/h 94% 1.0 mm 98 W/m2
10:41 10.7 °C 9.9 °C 1018.2 hPa NNW 6.1 km/h 11.1 km/h 95% 1.0 mm 105 W/m2
10:46 10.9 °C 10.3 °C 1018.2 hPa NNW 5.0 km/h 8.7 km/h 96% 1.0 mm 119 W/m2
10:51 11.2 °C 10.4 °C 1018.2 hPa NNW 7.2 km/h 11.1 km/h 95% 1.0 mm 123 W/m2
10:56 11.4 °C 10.8 °C 1018.2 hPa NNW 9.7 km/h 12.2 km/h 96% 1.0 mm 138 W/m2
11:01 11.6 °C 11.0 °C 1018.2 hPa NNW 8.7 km/h 12.2 km/h 96% 0.5 mm 171 W/m2
11:06 12.1 °C 11.5 °C 1018.2 hPa NNW 7.2 km/h 12.2 km/h 96% 0.5 mm 163 W/m2
11:11 12.4 °C 11.8 °C 1017.8 hPa NNW 7.2 km/h 11.1 km/h 96% 1.0 mm 162 W/m2
11:16 12.5 °C 11.7 °C 1018.2 hPa NW 7.2 km/h 12.2 km/h 95% 1.0 mm 155 W/m2
11:21 12.8 °C 12.0 °C 1018.2 hPa NW 6.1 km/h 12.2 km/h 95% 1.0 mm 192 W/m2
11:26 13.3 °C 12.5 °C 1017.8 hPa NNW 7.2 km/h 12.2 km/h 95% 0.5 mm 196 W/m2
11:31 13.8 °C 12.6 °C 1017.8 hPa NNW 6.1 km/h 12.2 km/h 92% 0.5 mm 217 W/m2
11:36 14.6 °C 13.0 °C 1017.5 hPa NNW 6.1 km/h 12.2 km/h 90% 0.3 mm 218 W/m2
11:41 14.9 °C 12.6 °C 1017.5 hPa North 6.1 km/h 14.8 km/h 86% 0.3 mm 187 W/m2
11:46 14.7 °C 12.1 °C 1017.5 hPa NNW 5.0 km/h 14.8 km/h 84% 0.3 mm 174 W/m2
11:51 14.5 °C 11.8 °C 1017.5 hPa North 8.7 km/h 12.2 km/h 84% 0.3 mm 164 W/m2
11:56 14.4 °C 11.7 °C 1017.2 hPa NNW 9.7 km/h 12.2 km/h 84% 0.3 mm 172 W/m2
12:01 14.4 °C 11.9 °C 1017.2 hPa NNW 6.1 km/h 12.2 km/h 85% 0.3 mm 168 W/m2
12:06 14.4 °C 11.9 °C 1017.2 hPa NNW 6.1 km/h 12.2 km/h 85% 0.3 mm 168 W/m2
12:11 14.6 °C 12.1 °C 1017.2 hPa NNW 7.2 km/h 11.1 km/h 85% 0.0 mm 176 W/m2
12:16 14.7 °C 12.1 °C 1016.8 hPa NNW 5.0 km/h 11.1 km/h 84% 0.0 mm 165 W/m2
12:21 15.0 °C 12.2 °C 1016.8 hPa NNW 6.1 km/h 11.1 km/h 83% 0.0 mm 151 W/m2
12:26 15.1 °C 12.2 °C 1016.8 hPa NW 6.1 km/h 11.1 km/h 83% 0.0 mm 165 W/m2
12:31 15.3 °C 12.1 °C 1016.8 hPa NNW 9.7 km/h 15.8 km/h 81% 0.0 mm 162 W/m2
12:36 15.2 °C 11.6 °C 1016.8 hPa North 8.7 km/h 15.8 km/h 79% 0.0 mm 154 W/m2
12:41 15.3 °C 11.9 °C 1016.8 hPa North 8.7 km/h 15.8 km/h 80% 0.0 mm 131 W/m2
12:46 15.2 °C 11.9 °C 1016.5 hPa NNW 8.7 km/h 14.8 km/h 81% 0.0 mm 126 W/m2
12:51 15.1 °C 11.9 °C 1016.8 hPa NNW 11.1 km/h 12.2 km/h 81% 0.0 mm 125 W/m2
12:56 15.0 °C 11.9 °C 1016.8 hPa NNW 5.0 km/h 12.2 km/h 82% 0.0 mm 116 W/m2
13:01 15.0 °C 12.2 °C 1016.5 hPa NNW 5.0 km/h 12.2 km/h 83% 0.0 mm 126 W/m2
13:06 15.0 °C 12.2 °C 1016.8 hPa NNW 6.1 km/h 12.2 km/h 83% 0.0 mm 102 W/m2
13:11 15.1 °C 12.2 °C 1016.5 hPa North 6.1 km/h 11.1 km/h 83% 0.0 mm 112 W/m2
13:16 15.2 °C 12.3 °C 1016.5 hPa North 6.1 km/h 11.1 km/h 83% 0.0 mm 119 W/m2
13:21 15.4 °C 12.3 °C 1016.5 hPa NNW 7.2 km/h 9.7 km/h 82% 0.0 mm 133 W/m2
13:26 15.5 °C 12.1 °C 1016.5 hPa North 7.2 km/h 11.1 km/h 80% 0.0 mm 171 W/m2
13:31 15.6 °C 11.8 °C 1016.1 hPa North 6.1 km/h 13.4 km/h 78% 0.0 mm 196 W/m2
13:36 16.3 °C 12.3 °C 1016.1 hPa NNW 7.2 km/h 13.4 km/h 77% 0.0 mm 222 W/m2
13:41 16.8 °C 12.3 °C 1016.1 hPa North 8.7 km/h 17.2 km/h 75% 0.0 mm 202 W/m2
13:46 17.0 °C 12.1 °C 1016.1 hPa North 6.1 km/h 17.2 km/h 73% 0.0 mm 142 W/m2
13:51 16.5 °C 11.8 °C 1016.1 hPa North 9.7 km/h 17.2 km/h 74% 0.0 mm 124 W/m2
13:56 16.1 °C 11.4 °C 1016.1 hPa NNW 11.1 km/h 15.8 km/h 74% 0.0 mm 154 W/m2
14:12 15.7 °C 12.1 °C 1016.1 hPa North 6.1 km/h 15.8 km/h 79% 0.0 mm 89 W/m2
14:17 15.6 °C 12.0 °C 1016.1 hPa North 6.1 km/h 15.8 km/h 79% 0.0 mm 63 W/m2
14:22 15.6 °C 12.0 °C 1016.1 hPa NNW 7.2 km/h 15.8 km/h 79% 0.0 mm 47 W/m2
14:27 15.5 °C 12.1 °C 1016.5 hPa NNW 6.1 km/h 14.8 km/h 80% 0.0 mm 73 W/m2
14:32 15.4 °C 12.2 °C 1016.5 hPa NNW 2.6 km/h 13.4 km/h 81% 0.0 mm 74 W/m2
14:37 15.4 °C 12.3 °C 1016.5 hPa NNW 5.0 km/h 8.7 km/h 82% 0.0 mm 79 W/m2
14:42 15.4 °C 12.3 °C 1016.5 hPa North 2.6 km/h 8.7 km/h 82% 0.0 mm 75 W/m2
14:47 15.4 °C 12.6 °C 1016.5 hPa NNE 2.6 km/h 8.7 km/h 83% 0.0 mm 93 W/m2
14:52 15.4 °C 12.6 °C 1016.1 hPa NNE 2.6 km/h 8.7 km/h 83% 0.3 mm 74 W/m2
14:57 15.3 °C 12.6 °C 1016.5 hPa NNE 3.5 km/h 6.1 km/h 84% 0.3 mm 48 W/m2
15:02 15.2 °C 12.5 °C 1016.1 hPa NNE 2.6 km/h 6.1 km/h 84% 0.3 mm 57 W/m2
15:07 15.0 °C 12.5 °C 1016.1 hPa North 3.5 km/h 6.1 km/h 85% 0.3 mm 74 W/m2
15:12 14.9 °C 12.6 °C 1016.5 hPa North 2.6 km/h 7.2 km/h 86% 0.3 mm 63 W/m2
15:17 14.9 °C 12.8 °C 1016.5 hPa North 3.5 km/h 7.2 km/h 87% 0.3 mm 55 W/m2
15:22 14.8 °C 12.7 °C 1016.5 hPa North 6.1 km/h 9.7 km/h 87% 0.3 mm 55 W/m2
15:27 14.7 °C 12.7 °C 1016.1 hPa North 3.5 km/h 9.7 km/h 88% 0.3 mm 36 W/m2
15:32 14.5 °C 12.6 °C 1016.1 hPa North 5.0 km/h 13.4 km/h 88% 0.3 mm 26 W/m2
15:38 14.3 °C 12.3 °C 1016.1 hPa NNE 5.0 km/h 13.4 km/h 88% 0.3 mm 20 W/m2
15:43 14.2 °C 12.4 °C 1016.5 hPa NNE 5.0 km/h 12.2 km/h 89% 0.3 mm 19 W/m2
15:48 14.2 °C 12.4 °C 1016.1 hPa NNE 5.0 km/h 12.2 km/h 89% 0.3 mm 24 W/m2
15:53 14.0 °C 12.2 °C 1016.5 hPa North 3.5 km/h 12.2 km/h 89% 0.0 mm 29 W/m2
15:58 14.0 °C 12.2 °C 1016.5 hPa NNW 2.6 km/h 8.7 km/h 89% 0.0 mm 33 W/m2
16:03 14.0 °C 12.4 °C 1016.5 hPa NW 6.1 km/h 8.7 km/h 90% 0.0 mm 30 W/m2
16:08 13.9 °C 12.4 °C 1016.5 hPa NNW 3.5 km/h 8.7 km/h 91% 0.0 mm 21 W/m2
16:13 13.9 °C 12.6 °C 1016.5 hPa North 3.5 km/h 8.7 km/h 92% 0.0 mm 23 W/m2
16:18 13.8 °C 12.6 °C 1016.8 hPa North 2.6 km/h 6.1 km/h 92% 0.0 mm 29 W/m2
16:23 13.7 °C 12.6 °C 1016.5 hPa North 5.0 km/h 8.7 km/h 93% 0.0 mm 25 W/m2
16:28 13.7 °C 12.6 °C 1016.5 hPa North 5.0 km/h 8.7 km/h 93% 0.0 mm 19 W/m2
16:33 13.7 °C 12.6 °C 1016.5 hPa North 2.6 km/h 6.1 km/h 93% 0.0 mm 12 W/m2
16:38 13.6 °C 12.5 °C 1016.5 hPa North 3.5 km/h 7.2 km/h 93% 0.0 mm 9 W/m2
16:43 13.5 °C 12.4 °C 1016.5 hPa North 2.6 km/h 7.2 km/h 93% 0.0 mm 7 W/m2
16:48 13.5 °C 12.4 °C 1016.5 hPa North 1.1 km/h 6.1 km/h 93% 0.0 mm 5 W/m2
16:53 13.4 °C 12.3 °C 1016.8 hPa North 2.6 km/h 7.2 km/h 93% 0.0 mm 4 W/m2
16:58 13.3 °C 12.2 °C 1016.5 hPa North 2.6 km/h 7.2 km/h 93% 0.0 mm 3 W/m2
17:03 13.2 °C 12.1 °C 1016.8 hPa NNW 2.6 km/h 6.1 km/h 93% 0.0 mm 1 W/m2
17:08 13.1 °C 12.0 °C 1016.8 hPa NW 5.0 km/h 6.1 km/h 93% 0.0 mm 0 W/m2
17:13 13.0 °C 11.9 °C 1016.8 hPa WNW 2.6 km/h 6.1 km/h 93% 0.0 mm 0 W/m2
17:18 12.9 °C 11.8 °C 1016.8 hPa West 3.5 km/h 6.1 km/h 93% 0.0 mm 0 W/m2
17:23 12.9 °C 11.8 °C 1016.8 hPa NW 5.0 km/h 7.2 km/h 93% 0.0 mm 0 W/m2
17:28 12.8 °C 11.9 °C 1016.8 hPa NW 5.0 km/h 8.7 km/h 94% 0.0 mm 0 W/m2
17:33 12.7 °C 11.8 °C 1017.2 hPa NW 5.0 km/h 8.7 km/h 94% 0.0 mm 0 W/m2
17:38 12.7 °C 11.9 °C 1017.2 hPa NW 3.5 km/h 8.7 km/h 95% 0.0 mm 0 W/m2
17:43 12.6 °C 11.8 °C 1017.2 hPa NW 2.6 km/h 7.2 km/h 95% 0.0 mm 0 W/m2
17:48 12.5 °C 11.7 °C 1017.2 hPa NW 1.1 km/h 5.0 km/h 95% 0.0 mm 0 W/m2
17:53 12.5 °C 11.7 °C 1017.5 hPa Calm   5.0 km/h 95% 0.0 mm 0 W/m2
17:58 12.5 °C 11.7 °C 1017.2 hPa NNW 1.1 km/h 5.0 km/h 95% 0.0 mm 0 W/m2
18:03 12.5 °C 11.9 °C 1017.5 hPa NNW 2.6 km/h 3.5 km/h 96% 0.0 mm 0 W/m2
18:08 12.5 °C 11.9 °C 1017.5 hPa North 2.6 km/h 3.5 km/h 96% 0.0 mm 0 W/m2
18:13 12.5 °C 11.9 °C 1017.5 hPa NNW 3.5 km/h 5.0 km/h 96% 0.0 mm 0 W/m2
18:18 12.5 °C 11.9 °C 1017.5 hPa NNW 1.1 km/h 5.0 km/h 96% 0.0 mm 0 W/m2
18:23 12.5 °C 11.9 °C 1017.8 hPa NNW 2.6 km/h 5.0 km/h 96% 0.0 mm 0 W/m2
18:28 12.5 °C 12.1 °C 1017.8 hPa NW 2.6 km/h 6.1 km/h 97% 0.0 mm 0 W/m2
18:33 12.5 °C 12.1 °C 1017.8 hPa NW 2.6 km/h 6.1 km/h 97% 0.0 mm 0 W/m2
18:38 12.5 °C 12.1 °C 1017.8 hPa NNW 2.6 km/h 6.1 km/h 97% 0.0 mm 0 W/m2
18:41 12.5 °C 12.1 °C 1017.8 hPa NNW 1.1 km/h 6.1 km/h 97% 0.0 mm 0 W/m2
18:46 12.5 °C 12.1 °C 1018.2 hPa North 2.6 km/h 6.1 km/h 97% 0.0 mm 0 W/m2
18:51 12.5 °C 12.1 °C 1018.2 hPa Calm   3.5 km/h 97% 0.0 mm 0 W/m2
18:56 12.5 °C 12.1 °C 1018.5 hPa WNW 1.1 km/h 3.5 km/h 97% 0.0 mm 0 W/m2
19:01 12.6 °C 12.2 °C 1018.2 hPa SW 2.6 km/h 5.0 km/h 97% 0.0 mm 0 W/m2
19:06 12.7 °C 12.2 °C 1018.2 hPa South 8.7 km/h 13.4 km/h 97% 0.0 mm 0 W/m2
19:11 12.7 °C 12.2 °C 1018.5 hPa SSW 6.1 km/h 13.4 km/h 97% 0.0 mm 0 W/m2
19:16 12.8 °C 12.3 °C 1018.5 hPa SSW 3.5 km/h 13.4 km/h 97% 0.0 mm 0 W/m2
19:21 12.8 °C 12.3 °C 1018.5 hPa SSW 6.1 km/h 12.2 km/h 97% 0.0 mm 0 W/m2
19:26 12.8 °C 12.2 °C 1018.8 hPa SSW 13.4 km/h 19.5 km/h 96% 0.0 mm 0 W/m2
19:31 12.8 °C 12.2 °C 1018.8 hPa SSW 12.2 km/h 23.3 km/h 96% 0.0 mm 0 W/m2
19:36 12.6 °C 11.8 °C 1018.8 hPa SSW 17.2 km/h 27.0 km/h 95% 0.3 mm 0 W/m2
19:41 12.2 °C 11.3 °C 1018.8 hPa SW 13.4 km/h 28.0 km/h 94% 0.3 mm 0 W/m2
19:46 12.0 °C 10.9 °C 1018.8 hPa SW 9.7 km/h 28.0 km/h 93% 0.3 mm 0 W/m2
19:51 11.9 °C 10.8 °C 1018.8 hPa SW 7.2 km/h 19.5 km/h 93% 0.3 mm 0 W/m2
19:56 11.8 °C 10.6 °C 1018.8 hPa SW 2.6 km/h 15.8 km/h 92% 0.3 mm 0 W/m2
20:01 11.8 °C 10.6 °C 1018.8 hPa SW 6.1 km/h 7.2 km/h 92% 0.3 mm 0 W/m2
20:06 11.7 °C 10.4 °C 1018.8 hPa SSW 1.1 km/h 7.2 km/h 92% 0.3 mm 0 W/m2
20:11 11.7 °C 10.4 °C 1018.8 hPa WSW 3.5 km/h 7.2 km/h 92% 0.3 mm 0 W/m2
20:16 11.7 °C 10.4 °C 1018.8 hPa West 7.2 km/h 9.7 km/h 92% 0.3 mm 0 W/m2
20:21 11.8 °C 10.6 °C 1018.8 hPa West 3.5 km/h 13.4 km/h 92% 0.3 mm 0 W/m2
20:27 11.8 °C 10.6 °C 1018.8 hPa West 5.0 km/h 13.4 km/h 92% 0.3 mm 0 W/m2
20:32 11.8 °C 10.6 °C 1019.2 hPa West 2.6 km/h 12.2 km/h 92% 0.3 mm 0 W/m2
20:37 11.8 °C 10.6 °C 1019.2 hPa West 2.6 km/h 8.7 km/h 92% 0.0 mm 0 W/m2
20:42 11.7 °C 10.4 °C 1019.2 hPa West 5.0 km/h 7.2 km/h 92% 0.0 mm 0 W/m2
20:47 11.5 °C 10.2 °C 1019.2 hPa WNW 5.0 km/h 8.7 km/h 92% 0.0 mm 0 W/m2
20:52 11.2 °C 9.9 °C 1019.5 hPa NW 2.6 km/h 9.7 km/h 92% 0.0 mm 0 W/m2
20:57 11.0 °C 9.8 °C 1019.5 hPa NW 2.6 km/h 9.7 km/h 92% 0.0 mm 0 W/m2
21:02 11.0 °C 9.8 °C 1019.5 hPa Calm   6.1 km/h 92% 0.0 mm 0 W/m2
21:07 11.0 °C 9.8 °C 1019.5 hPa NNW 1.1 km/h 5.0 km/h 92% 0.0 mm 0 W/m2
21:12 10.9 °C 9.8 °C 1019.2 hPa NNW 2.6 km/h 6.1 km/h 93% 0.0 mm 0 W/m2
21:17 10.9 °C 9.8 °C 1019.5 hPa North 2.6 km/h 6.1 km/h 93% 0.0 mm 0 W/m2
21:22 10.9 °C 10.0 °C 1019.5 hPa NNW 2.6 km/h 5.0 km/h 94% 0.0 mm 0 W/m2
21:27 10.9 °C 10.0 °C 1019.5 hPa NW 2.6 km/h 5.0 km/h 94% 0.0 mm 0 W/m2
21:32 10.9 °C 10.0 °C 1019.5 hPa NW 1.1 km/h 5.0 km/h 94% 0.0 mm 0 W/m2
21:37 10.9 °C 10.1 °C 1019.5 hPa NNW 3.5 km/h 6.1 km/h 95% 0.0 mm 0 W/m2
21:42 10.9 °C 10.1 °C 1019.5 hPa NNW 2.6 km/h 6.1 km/h 95% 0.0 mm 0 W/m2
21:47 10.9 °C 10.1 °C 1019.5 hPa NW 1.1 km/h 6.1 km/h 95% 0.0 mm 0 W/m2
21:52 11.0 °C 10.1 °C 1019.5 hPa NW 2.6 km/h 5.0 km/h 94% 0.0 mm 0 W/m2
21:57 11.0 °C 10.2 °C 1019.5 hPa NW 3.5 km/h 7.2 km/h 95% 0.0 mm 0 W/m2
22:02 11.1 °C 10.3 °C 1019.5 hPa NW 2.6 km/h 7.2 km/h 95% 0.0 mm 0 W/m2
22:07 11.1 °C 10.2 °C 1019.5 hPa WNW 1.1 km/h 7.2 km/h 94% 0.0 mm 0 W/m2
22:12 11.1 °C 10.2 °C 1019.5 hPa NW 2.6 km/h 6.1 km/h 94% 0.0 mm 0 W/m2
22:17 11.1 °C 10.2 °C 1019.9 hPa NNW 1.1 km/h 5.0 km/h 94% 0.0 mm 0 W/m2
22:22 11.1 °C 10.2 °C 1019.5 hPa NNW 2.6 km/h 5.0 km/h 94% 0.0 mm 0 W/m2
22:27 11.1 °C 10.2 °C 1019.5 hPa NNW 2.6 km/h 5.0 km/h 94% 0.0 mm 0 W/m2
22:32 11.1 °C 10.2 °C 1019.5 hPa NNW 3.5 km/h 6.1 km/h 94% 0.0 mm 0 W/m2
22:37 11.0 °C 10.1 °C 1019.5 hPa NNW 3.5 km/h 6.1 km/h 94% 0.0 mm 0 W/m2
22:42 11.1 °C 10.2 °C 1019.9 hPa NW 2.6 km/h 6.1 km/h 94% 0.0 mm 0 W/m2
22:47 11.1 °C 10.2 °C 1019.5 hPa NW 3.5 km/h 6.1 km/h 94% 0.0 mm 0 W/m2
22:52 11.1 °C 10.2 °C 1019.9 hPa NW 3.5 km/h 7.2 km/h 94% 0.0 mm 0 W/m2
22:57 11.1 °C 10.2 °C 1019.9 hPa NW 3.5 km/h 7.2 km/h 94% 0.0 mm 0 W/m2
23:02 11.1 °C 10.2 °C 1019.9 hPa NW 3.5 km/h 7.2 km/h 94% 0.0 mm 0 W/m2
23:07 11.0 °C 10.1 °C 1019.9 hPa NW 2.6 km/h 7.2 km/h 94% 0.0 mm 0 W/m2
23:12 10.9 °C 10.0 °C 1019.9 hPa NW 5.0 km/h 7.2 km/h 94% 0.0 mm 0 W/m2
23:17 10.9 °C 10.0 °C 1019.9 hPa NW 3.5 km/h 7.2 km/h 94% 0.0 mm 0 W/m2
23:22 11.0 °C 9.9 °C 1019.9 hPa NW 1.1 km/h 8.7 km/h 93% 0.0 mm 0 W/m2
23:27 11.0 °C 9.9 °C 1019.9 hPa NW 1.1 km/h 8.7 km/h 93% 0.0 mm 0 W/m2
23:32 11.2 °C 10.1 °C 1019.9 hPa WNW 3.5 km/h 11.1 km/h 93% 0.0 mm 0 W/m2
23:37 11.3 °C 10.2 °C 1019.9 hPa West 3.5 km/h 11.1 km/h 93% 0.0 mm 0 W/m2
23:42 11.6 °C 10.5 °C 1019.9 hPa West 2.6 km/h 8.7 km/h 93% 0.0 mm 0 W/m2
23:47 11.7 °C 10.6 °C 1019.9 hPa WNW 3.5 km/h 7.2 km/h 93% 0.0 mm 0 W/m2
23:52 11.9 °C 10.8 °C 1019.9 hPa West 6.1 km/h 9.7 km/h 93% 0.0 mm 0 W/m2
23:57 12.0 °C 10.6 °C 1019.9 hPa West 2.6 km/h 12.2 km/h 91% 0.0 mm 0 W/m2
Northern Hawkes Bay. New Zealand Historic Data
Compliments of Weather Underground - 2 mb